Time,TemperatureF,DewpointF,PressureIn,WindDirection,WindDirectionDegrees,WindSpeedMPH,WindSpeedGustMPH,Humidity,HourlyPrecipIn,Conditions,Clouds,dailyrainin,SoftwareType,DateUTC
2013-03-10 00:00:00,31.9,21.8,30.19,South,184,0.0,0.0,66,0.00,,,0.16,Wunderground v.1.15,2013-03-10 05:00:00,
2013-03-10 00:10:00,31.9,22.2,30.19,South,184,0.0,0.0,67,0.00,,,0.00,Wunderground v.1.15,2013-03-10 05:10:00,
2013-03-10 00:20:00,31.8,21.7,30.20,South,184,0.0,0.0,66,0.00,,,0.00,Wunderground v.1.15,2013-03-10 05:20:00,
2013-03-10 00:30:00,31.5,21.8,30.20,South,184,0.0,0.0,67,0.00,,,0.00,Wunderground v.1.15,2013-03-10 05:30:00,
2013-03-10 00:40:00,31.5,21.8,30.20,South,184,0.0,0.0,67,0.00,,,0.00,Wunderground v.1.15,2013-03-10 05:40:00,
2013-03-10 00:50:00,32.4,23.0,30.22,South,184,0.0,0.0,68,0.00,,,0.00,Wunderground v.1.15,2013-03-10 05:50:00,
2013-03-10 01:00:00,32.8,23.4,30.22,South,184,0.0,0.0,68,0.00,,,0.00,Wunderground v.1.15,2013-03-10 06:00:00,
2013-03-10 01:10:00,32.7,23.6,30.22,South,184,0.0,0.0,69,0.00,,,0.00,Wunderground v.1.15,2013-03-10 06:10:00,
2013-03-10 01:20:00,32.4,24.0,30.22,South,184,0.0,0.0,71,0.00,,,0.00,Wunderground v.1.15,2013-03-10 06:20:00,
2013-03-10 01:30:00,32.1,25.4,30.21,South,184,0.0,0.0,76,0.00,,,0.00,Wunderground v.1.15,2013-03-10 06:30:00,
2013-03-10 01:40:00,31.8,26.0,30.21,South,184,0.0,0.0,79,0.00,,,0.00,Wunderground v.1.15,2013-03-10 06:40:00,
2013-03-10 01:50:00,31.5,26.3,30.21,South,184,0.0,0.0,81,0.00,,,0.00,Wunderground v.1.15,2013-03-10 06:50:00,
2013-03-10 03:00:00,31.5,26.6,30.20,South,184,0.0,0.0,82,0.00,,,0.00,Wunderground v.1.15,2013-03-10 07:00:00,
2013-03-10 03:10:00,31.2,26.6,30.20,South,184,0.0,0.0,83,0.00,,,0.00,Wunderground v.1.15,2013-03-10 07:10:00,
2013-03-10 03:20:00,30.9,26.3,30.20,South,184,0.0,0.0,83,0.00,,,0.00,Wunderground v.1.15,2013-03-10 07:20:00,
2013-03-10 03:30:00,30.4,26.1,30.20,South,184,0.0,0.0,84,0.00,,,0.00,Wunderground v.1.15,2013-03-10 07:30:00,
2013-03-10 03:40:00,30.0,25.8,30.20,South,184,0.0,0.0,84,0.00,,,0.00,Wunderground v.1.15,2013-03-10 07:40:00,
2013-03-10 03:50:00,29.7,25.7,30.20,South,184,0.0,0.0,85,0.00,,,0.00,Wunderground v.1.15,2013-03-10 07:50:00,
2013-03-10 04:00:00,29.8,26.1,30.20,South,184,0.0,0.0,86,0.00,,,0.00,Wunderground v.1.15,2013-03-10 08:00:00,
2013-03-10 04:10:00,29.5,25.8,30.20,South,184,0.0,0.0,86,0.00,,,0.00,Wunderground v.1.15,2013-03-10 08:10:00,
2013-03-10 04:20:00,29.3,25.6,30.21,South,184,0.0,0.0,86,0.00,,,0.00,Wunderground v.1.15,2013-03-10 08:20:00,
2013-03-10 04:30:00,28.8,25.1,30.22,South,184,0.0,0.0,86,0.00,,,0.00,Wunderground v.1.15,2013-03-10 08:30:00,
2013-03-10 04:40:00,28.5,25.1,30.22,South,184,0.0,0.0,87,0.00,,,0.00,Wunderground v.1.15,2013-03-10 08:40:00,
2013-03-10 04:50:00,28.4,25.0,30.22,South,184,0.0,0.0,87,0.00,,,0.00,Wunderground v.1.15,2013-03-10 08:50:00,
2013-03-10 05:00:00,28.1,24.7,30.23,South,184,0.0,0.0,87,0.00,,,0.00,Wunderground v.1.15,2013-03-10 09:00:00,
2013-03-10 05:10:00,28.2,25.1,30.23,South,184,0.0,0.0,88,0.00,,,0.00,Wunderground v.1.15,2013-03-10 09:10:00,
2013-03-10 05:20:00,27.9,24.5,30.23,South,184,0.0,0.0,87,0.00,,,0.00,Wunderground v.1.15,2013-03-10 09:20:00,
2013-03-10 05:30:00,27.6,24.5,30.23,South,184,0.0,0.0,88,0.00,,,0.00,Wunderground v.1.15,2013-03-10 09:30:00,
2013-03-10 05:40:00,27.5,24.4,30.23,South,184,0.0,0.0,88,0.00,,,0.00,Wunderground v.1.15,2013-03-10 09:40:00,
2013-03-10 05:50:00,27.3,24.2,30.24,South,184,0.0,0.0,88,0.00,,,0.00,Wunderground v.1.15,2013-03-10 09:50:00,
2013-03-10 06:00:00,27.5,24.4,30.24,South,184,0.0,0.0,88,0.00,,,0.00,Wunderground v.1.15,2013-03-10 10:00:00,
2013-03-10 06:10:00,27.3,24.2,30.24,South,184,0.0,0.0,88,0.00,,,0.00,Wunderground v.1.15,2013-03-10 10:10:00,
2013-03-10 06:20:00,27.2,24.1,30.24,South,184,0.0,0.0,88,0.00,,,0.00,Wunderground v.1.15,2013-03-10 10:20:00,
2013-03-10 06:30:00,26.9,24.1,30.24,South,184,0.0,0.0,89,0.00,,,0.00,Wunderground v.1.15,2013-03-10 10:30:00,
2013-03-10 06:40:00,26.9,24.1,30.24,South,184,0.0,0.0,89,0.00,,,0.00,Wunderground v.1.15,2013-03-10 10:40:00,
2013-03-10 06:50:00,26.6,23.8,30.24,South,184,0.0,0.0,89,0.00,,,0.00,Wunderground v.1.15,2013-03-10 10:50:00,
2013-03-10 07:00:00,26.6,23.8,30.25,South,184,0.0,0.0,89,0.00,,,0.00,Wunderground v.1.15,2013-03-10 11:00:00,
2013-03-10 07:10:00,26.4,23.6,30.25,South,184,0.0,0.0,89,0.00,,,0.00,Wunderground v.1.15,2013-03-10 11:10:00,
2013-03-10 07:20:00,26.3,23.5,30.26,South,184,0.0,0.0,89,0.00,,,0.00,Wunderground v.1.15,2013-03-10 11:20:00,
2013-03-10 07:30:00,26.3,23.5,30.26,South,184,0.0,0.0,89,0.00,,,0.00,Wunderground v.1.15,2013-03-10 11:30:00,
2013-03-10 07:40:00,26.3,23.5,30.26,South,184,0.0,0.0,89,0.00,,,0.00,Wunderground v.1.15,2013-03-10 11:40:00,
2013-03-10 07:50:00,26.3,23.5,30.26,South,184,0.0,0.0,89,0.00,,,0.00,Wunderground v.1.15,2013-03-10 11:50:00,
2013-03-10 08:00:00,26.3,23.5,30.27,South,184,0.0,0.0,89,0.00,,,0.00,Wunderground v.1.15,2013-03-10 12:00:00,
2013-03-10 08:10:00,27.0,24.2,30.27,South,184,0.0,0.0,89,0.00,,,0.00,Wunderground v.1.15,2013-03-10 12:10:00,
2013-03-10 08:20:00,27.5,24.7,30.26,South,184,0.0,0.0,89,0.00,,,0.00,Wunderground v.1.15,2013-03-10 12:20:00,
2013-03-10 08:30:00,27.9,25.3,30.26,South,184,0.0,0.0,90,0.00,,,0.00,Wunderground v.1.15,2013-03-10 12:30:00,
2013-03-10 08:40:00,29.0,26.4,30.26,South,184,0.0,0.0,90,0.00,,,0.00,Wunderground v.1.15,2013-03-10 12:40:00,
2013-03-10 08:50:00,30.1,27.5,30.26,South,184,0.0,0.0,90,0.00,,,0.00,Wunderground v.1.15,2013-03-10 12:50:00,
2013-03-10 09:00:00,31.0,28.4,30.27,South,184,0.0,0.0,90,0.00,,,0.00,Wunderground v.1.15,2013-03-10 13:00:00,
2013-03-10 09:10:00,32.1,29.2,30.27,South,184,0.0,0.0,89,0.00,,,0.00,Wunderground v.1.15,2013-03-10 13:10:00,
2013-03-10 09:20:00,33.4,29.1,30.27,East,90,0.0,0.0,84,0.00,,,0.00,Wunderground v.1.15,2013-03-10 13:20:00,
2013-03-10 09:30:00,34.6,29.1,30.27,East,90,0.0,0.0,80,0.00,,,0.00,Wunderground v.1.15,2013-03-10 13:30:00,
2013-03-10 09:40:00,35.5,29.0,30.27,East,90,0.0,0.0,77,0.00,,,0.00,Wunderground v.1.15,2013-03-10 13:40:00,
2013-03-10 09:50:00,36.5,29.0,30.27,NE,55,0.0,2.0,74,0.00,,,0.00,Wunderground v.1.15,2013-03-10 13:50:00,
2013-03-10 10:00:00,37.3,29.4,30.26,NNE,20,0.0,0.0,73,0.00,,,0.00,Wunderground v.1.15,2013-03-10 14:00:00,
2013-03-10 10:10:00,38.0,29.4,30.26,ESE,109,0.0,0.0,71,0.00,,,0.00,Wunderground v.1.15,2013-03-10 14:10:00,
2013-03-10 10:20:00,38.6,29.7,30.27,North,1,1.0,1.0,70,0.00,,,0.00,Wunderground v.1.15,2013-03-10 14:20:00,
2013-03-10 10:30:00,39.2,29.5,30.27,NNW,342,1.0,1.0,68,0.00,,,0.00,Wunderground v.1.15,2013-03-10 14:30:00,
2013-03-10 10:40:00,40.1,30.0,30.27,SSW,198,0.0,0.0,67,0.00,,,0.00,Wunderground v.1.15,2013-03-10 14:40:00,
2013-03-10 10:50:00,40.6,29.4,30.26,NNE,13,1.0,2.0,64,0.00,,,0.00,Wunderground v.1.15,2013-03-10 14:50:00,
2013-03-10 11:00:00,41.2,30.3,30.26,NNE,13,1.0,3.0,65,0.00,,,0.00,Wunderground v.1.15,2013-03-10 15:00:00,
2013-03-10 11:10:00,42.1,30.4,30.26,NNE,14,1.0,7.0,63,0.00,,,0.00,Wunderground v.1.15,2013-03-10 15:10:00,
2013-03-10 11:20:00,43.1,30.6,30.26,NNE,13,1.0,2.0,61,0.00,,,0.00,Wunderground v.1.15,2013-03-10 15:20:00,
2013-03-10 11:30:00,43.5,29.7,30.25,North,10,2.0,5.0,58,0.00,,,0.00,Wunderground v.1.15,2013-03-10 15:30:00,
2013-03-10 11:40:00,44.2,30.8,30.25,North,0,1.0,1.0,59,0.00,,,0.00,Wunderground v.1.15,2013-03-10 15:40:00,
2013-03-10 11:50:00,44.2,29.5,30.25,NNE,31,2.0,2.0,56,0.00,,,0.00,Wunderground v.1.15,2013-03-10 15:50:00,
2013-03-10 12:00:00,44.8,30.0,30.24,SW,220,1.0,1.0,56,0.00,,,0.00,Wunderground v.1.15,2013-03-10 16:00:00,
2013-03-10 12:10:00,44.6,30.3,30.24,ENE,62,1.0,1.0,57,0.00,,,0.00,Wunderground v.1.15,2013-03-10 16:10:00,
2013-03-10 12:20:00,45.7,30.0,30.24,East,96,1.0,1.0,54,0.00,,,0.00,Wunderground v.1.15,2013-03-10 16:20:00,
2013-03-10 12:30:00,45.1,29.9,30.24,North,0,1.0,2.0,55,0.00,,,0.00,Wunderground v.1.15,2013-03-10 16:30:00,
2013-03-10 12:40:00,45.8,30.1,30.24,WNW,287,1.0,1.0,54,0.00,,,0.00,Wunderground v.1.15,2013-03-10 16:40:00,
2013-03-10 12:50:00,46.5,29.8,30.24,North,6,0.0,0.0,52,0.00,,,0.00,Wunderground v.1.15,2013-03-10 16:50:00,
2013-03-10 13:00:00,45.8,29.6,30.23,NE,37,1.0,1.0,53,0.00,,,0.00,Wunderground v.1.15,2013-03-10 17:00:00,
2013-03-10 13:10:00,45.2,29.1,30.23,NNE,21,2.0,2.0,53,0.00,,,0.00,Wunderground v.1.15,2013-03-10 17:10:00,
2013-03-10 13:20:00,46.1,29.4,30.23,North,10,1.0,1.0,52,0.00,,,0.00,Wunderground v.1.15,2013-03-10 17:20:00,
2013-03-10 13:30:00,45.8,28.7,30.23,NNE,31,2.0,3.0,51,0.00,,,0.00,Wunderground v.1.15,2013-03-10 17:30:00,
2013-03-10 13:40:00,46.7,30.0,30.23,NNE,31,1.0,1.0,52,0.00,,,0.00,Wunderground v.1.15,2013-03-10 17:40:00,
2013-03-10 13:50:00,47.6,29.9,30.22,North,7,0.0,0.0,50,0.00,,,0.00,Wunderground v.1.15,2013-03-10 17:50:00,
2013-03-10 14:00:00,47.7,28.9,30.22,North,0,0.0,1.0,48,0.00,,,0.00,Wunderground v.1.15,2013-03-10 18:00:00,
2013-03-10 14:10:00,47.3,29.1,30.22,NW,308,2.0,2.0,49,0.00,,,0.00,Wunderground v.1.15,2013-03-10 18:10:00,
2013-03-10 14:20:00,47.3,30.5,30.22,North,0,1.0,1.0,52,0.00,,,0.00,Wunderground v.1.15,2013-03-10 18:20:00,
2013-03-10 14:30:00,48.0,31.2,30.21,North,359,1.0,1.0,52,0.00,,,0.00,Wunderground v.1.15,2013-03-10 18:30:00,
2013-03-10 14:40:00,48.8,31.9,30.21,NNE,24,1.0,1.0,52,0.00,,,0.00,Wunderground v.1.15,2013-03-10 18:40:00,
2013-03-10 14:50:00,49.8,30.9,30.20,North,8,0.0,1.0,48,0.00,,,0.00,Wunderground v.1.15,2013-03-10 18:50:00,
2013-03-10 15:00:00,50.2,31.2,30.19,North,359,1.0,2.0,48,0.00,,,0.00,Wunderground v.1.15,2013-03-10 19:00:00,
2013-03-10 15:10:00,50.8,30.7,30.19,ESE,110,0.0,1.0,46,0.00,,,0.00,Wunderground v.1.15,2013-03-10 19:10:00,
2013-03-10 15:20:00,50.1,31.7,30.18,East,83,0.0,1.0,49,0.00,,,0.00,Wunderground v.1.15,2013-03-10 19:20:00,
2013-03-10 15:30:00,49.5,31.6,30.18,NNE,23,0.0,0.0,50,0.00,,,0.00,Wunderground v.1.15,2013-03-10 19:30:00,
2013-03-10 15:40:00,49.1,31.2,30.18,North,4,1.0,1.0,50,0.00,,,0.00,Wunderground v.1.15,2013-03-10 19:40:00,
2013-03-10 15:50:00,48.5,30.7,30.17,NNE,24,2.0,2.0,50,0.00,,,0.00,Wunderground v.1.15,2013-03-10 19:50:00,
2013-03-10 16:00:00,49.2,31.3,30.16,North,0,0.0,0.0,50,0.00,,,0.00,Wunderground v.1.15,2013-03-10 20:00:00,
2013-03-10 16:10:00,49.6,32.7,30.16,East,80,3.0,3.0,52,0.00,,,0.00,Wunderground v.1.15,2013-03-10 20:10:00,
2013-03-10 16:20:00,50.5,33.5,30.16,NW,315,0.0,1.0,52,0.00,,,0.00,Wunderground v.1.15,2013-03-10 20:20:00,
2013-03-10 16:30:00,49.5,33.1,30.16,NE,41,1.0,2.0,53,0.00,,,0.00,Wunderground v.1.15,2013-03-10 20:30:00,
2013-03-10 16:40:00,49.1,32.7,30.16,North,0,2.0,2.0,53,0.00,,,0.00,Wunderground v.1.15,2013-03-10 20:40:00,
2013-03-10 16:50:00,47.7,33.2,30.16,North,3,2.0,3.0,57,0.00,,,0.00,Wunderground v.1.15,2013-03-10 20:50:00,
2013-03-10 17:00:00,47.3,32.4,30.15,North,0,3.0,3.0,56,0.00,,,0.00,Wunderground v.1.15,2013-03-10 21:00:00,
2013-03-10 17:10:00,47.6,32.7,30.15,North,0,1.0,1.0,56,0.00,,,0.00,Wunderground v.1.15,2013-03-10 21:10:00,
2013-03-10 17:20:00,46.8,31.9,30.16,NNW,330,2.0,2.0,56,0.00,,,0.00,Wunderground v.1.15,2013-03-10 21:20:00,
2013-03-10 17:30:00,46.1,33.0,30.15,NNE,16,3.0,3.0,60,0.00,,,0.00,Wunderground v.1.15,2013-03-10 21:30:00,
2013-03-10 17:40:00,46.0,32.5,30.15,North,0,1.0,1.0,59,0.00,,,0.00,Wunderground v.1.15,2013-03-10 21:40:00,
2013-03-10 17:50:00,44.9,32.3,30.15,NE,37,2.0,6.0,61,0.00,,,0.00,Wunderground v.1.15,2013-03-10 21:50:00,
2013-03-10 18:00:00,44.1,32.3,30.15,North,0,2.0,8.0,63,0.00,,,0.00,Wunderground v.1.15,2013-03-10 22:00:00,
2013-03-10 18:10:00,43.5,32.1,30.15,NNE,13,1.0,1.0,64,0.00,,,0.00,Wunderground v.1.15,2013-03-10 22:10:00,
2013-03-10 18:20:00,42.9,31.9,30.15,NE,55,1.0,1.0,65,0.00,,,0.00,Wunderground v.1.15,2013-03-10 22:20:00,
2013-03-10 18:30:00,42.2,31.6,30.16,NNW,346,1.0,2.0,66,0.00,,,0.00,Wunderground v.1.15,2013-03-10 22:30:00,
2013-03-10 18:40:00,41.8,31.6,30.16,NNW,346,0.0,0.0,67,0.00,,,0.00,Wunderground v.1.15,2013-03-10 22:40:00,
2013-03-10 18:50:00,41.2,31.4,30.18,North,359,1.0,2.0,68,0.00,,,0.00,Wunderground v.1.15,2013-03-10 22:50:00,
2013-03-10 19:00:00,40.8,31.4,30.19,North,359,1.0,1.0,69,0.00,,,0.00,Wunderground v.1.15,2013-03-10 23:00:00,
2013-03-10 19:10:00,40.3,31.3,30.19,North,359,0.0,0.0,70,0.00,,,0.00,Wunderground v.1.15,2013-03-10 23:10:00,
2013-03-10 19:20:00,39.8,31.2,30.18,NNE,17,0.0,2.0,71,0.00,,,0.00,Wunderground v.1.15,2013-03-10 23:20:00,
2013-03-10 19:30:00,39.3,31.0,30.19,WNW,299,0.0,0.0,72,0.00,,,0.00,Wunderground v.1.15,2013-03-10 23:30:00,
2013-03-10 19:40:00,39.1,30.8,30.19,North,359,0.0,0.0,72,0.00,,,0.00,Wunderground v.1.15,2013-03-10 23:40:00,
2013-03-10 19:50:00,38.8,30.5,30.19,North,359,1.0,1.0,72,0.00,,,0.00,Wunderground v.1.15,2013-03-10 23:50:00,
2013-03-10 20:00:00,38.5,30.9,30.18,West,271,0.0,0.0,74,0.00,,,0.00,Wunderground v.1.15,2013-03-11 00:00:00,
2013-03-10 20:10:00,38.2,30.6,30.18,North,359,1.0,1.0,74,0.00,,,0.00,Wunderground v.1.15,2013-03-11 00:10:00,
2013-03-10 20:20:00,38.2,31.0,30.18,North,0,2.0,2.0,75,0.00,,,0.00,Wunderground v.1.15,2013-03-11 00:20:00,
2013-03-10 20:30:00,37.9,31.0,30.19,NE,35,1.0,1.0,76,0.00,,,0.00,Wunderground v.1.15,2013-03-11 00:30:00,
2013-03-10 20:40:00,37.6,30.7,30.19,North,7,1.0,1.0,76,0.00,,,0.00,Wunderground v.1.15,2013-03-11 00:40:00,
2013-03-10 20:50:00,37.5,30.9,30.20,North,0,1.0,1.0,77,0.00,,,0.00,Wunderground v.1.15,2013-03-11 00:50:00,
2013-03-10 21:00:00,37.3,30.7,30.20,North,0,1.0,4.0,77,0.00,,,0.00,Wunderground v.1.15,2013-03-11 01:00:00,
2013-03-10 21:10:00,37.2,31.0,30.20,North,4,1.0,1.0,78,0.00,,,0.00,Wunderground v.1.15,2013-03-11 01:10:00,
2013-03-10 21:20:00,37.0,30.8,30.19,NNE,14,1.0,1.0,78,0.00,,,0.00,Wunderground v.1.15,2013-03-11 01:20:00,
2013-03-10 21:30:00,36.9,31.0,30.20,North,359,1.0,1.0,79,0.00,,,0.00,Wunderground v.1.15,2013-03-11 01:30:00,
2013-03-10 21:40:00,36.8,30.9,30.20,North,359,0.0,0.0,79,0.00,,,0.00,Wunderground v.1.15,2013-03-11 01:40:00,
2013-03-10 21:50:00,36.6,31.0,30.19,North,0,1.0,1.0,80,0.00,,,0.00,Wunderground v.1.15,2013-03-11 01:50:00,
2013-03-10 22:00:00,36.5,30.9,30.18,NNE,13,1.0,1.0,80,0.00,,,0.00,Wunderground v.1.15,2013-03-11 02:00:00,
2013-03-10 22:10:00,36.5,30.9,30.18,NNE,18,1.0,1.0,80,0.00,,,0.00,Wunderground v.1.15,2013-03-11 02:10:00,
2013-03-10 22:20:00,36.3,31.0,30.18,WSW,248,1.0,1.0,81,0.00,,,0.00,Wunderground v.1.15,2013-03-11 02:20:00,
2013-03-10 22:30:00,36.3,31.0,30.19,North,0,1.0,1.0,81,0.00,,,0.00,Wunderground v.1.15,2013-03-11 02:30:00,
2013-03-10 22:40:00,36.3,31.0,30.19,North,359,1.0,2.0,81,0.00,,,0.00,Wunderground v.1.15,2013-03-11 02:40:00,
2013-03-10 22:50:00,36.5,31.2,30.19,NE,54,1.0,2.0,81,0.00,,,0.00,Wunderground v.1.15,2013-03-11 02:50:00,
2013-03-10 23:00:00,36.3,31.0,30.19,NE,54,0.0,0.0,81,0.00,,,0.00,Wunderground v.1.15,2013-03-11 03:00:00,
2013-03-10 23:10:00,36.2,30.9,30.19,NE,54,0.0,0.0,81,0.00,,,0.00,Wunderground v.1.15,2013-03-11 03:10:00,
2013-03-10 23:20:00,36.0,30.7,30.19,NE,54,0.0,0.0,81,0.00,,,0.00,Wunderground v.1.15,2013-03-11 03:20:00,
2013-03-10 23:30:00,35.9,30.9,30.19,NE,54,0.0,0.0,82,0.00,,,0.00,Wunderground v.1.15,2013-03-11 03:30:00,
2013-03-10 23:40:00,35.8,30.8,30.19,NE,54,0.0,0.0,82,0.00,,,0.00,Wunderground v.1.15,2013-03-11 03:40:00,
2013-03-10 23:50:00,35.8,31.1,30.19,NE,54,0.0,0.0,83,0.00,,,0.00,Wunderground v.1.15,2013-03-11 03:50:00,